createdAt,value
2022-12-11T00:00:53.542Z,23.23
2022-12-11T00:03:21.409Z,22.23
2022-12-11T00:05:49.245Z,22.63
2022-12-11T00:08:16.995Z,22.67
2022-12-11T00:10:49.503Z,25.23
2022-12-11T00:13:17.201Z,26.10
2022-12-11T00:15:46.340Z,23.83
2022-12-11T00:18:14.704Z,27.03
2022-12-11T00:20:43.021Z,26.80
2022-12-11T00:23:11.142Z,26.20
2022-12-11T00:25:42.559Z,25.77
2022-12-11T00:28:10.433Z,26.37
2022-12-11T00:30:40.114Z,26.83
2022-12-11T00:33:09.526Z,25.97
2022-12-11T00:35:39.977Z,29.10
2022-12-11T00:38:08.070Z,26.07
2022-12-11T00:40:37.103Z,27.10
2022-12-11T00:43:05.194Z,25.80
2022-12-11T00:45:36.486Z,26.87
2022-12-11T00:48:04.416Z,25.30
2022-12-11T00:50:33.959Z,26.27
2022-12-11T00:53:02.182Z,28.83
2022-12-11T00:55:29.880Z,27.07
2022-12-11T00:57:58.787Z,27.20
2022-12-11T01:00:26.563Z,28.03
2022-12-11T01:02:54.406Z,27.93
2022-12-11T01:05:22.253Z,27.50
2022-12-11T01:07:51.401Z,27.97
2022-12-11T01:10:24.177Z,27.40
2022-12-11T01:12:52.185Z,26.60
2022-12-11T01:15:20.418Z,26.00
2022-12-11T01:17:48.122Z,26.70
2022-12-11T01:20:16.136Z,26.10
2022-12-11T01:22:43.866Z,24.97
2022-12-11T01:25:13.136Z,24.80
2022-12-11T01:27:41.356Z,25.40
2022-12-11T01:30:10.526Z,24.77
2022-12-11T01:32:38.393Z,26.30
2022-12-11T01:35:06.901Z,24.37
2022-12-11T01:37:35.180Z,25.57
2022-12-11T01:40:03.361Z,27.23
2022-12-11T01:42:32.568Z,25.50
2022-12-11T01:45:32.148Z,24.23
2022-12-11T01:48:04.932Z,24.67
2022-12-11T01:50:35.708Z,24.43
2022-12-11T01:53:06.954Z,24.97
2022-12-11T01:55:35.591Z,25.13
2022-12-11T01:58:05.150Z,24.10
2022-12-11T02:00:33.000Z,23.87
2022-12-11T02:03:00.765Z,23.93
2022-12-11T02:05:28.541Z,25.67
2022-12-11T02:07:59.967Z,26.20
2022-12-11T02:10:40.369Z,25.70
2022-12-11T02:13:15.402Z,25.93
2022-12-11T02:15:50.563Z,27.20
2022-12-11T02:18:26.437Z,23.57
2022-12-11T02:21:03.863Z,27.13
2022-12-11T02:23:51.463Z,27.60
2022-12-11T02:26:40.577Z,27.50
2022-12-11T02:29:17.658Z,25.83
2022-12-11T02:31:51.887Z,25.47
2022-12-11T02:34:24.267Z,25.77
2022-12-11T02:36:55.640Z,27.00
2022-12-11T02:39:26.458Z,26.67
2022-12-11T02:41:55.401Z,27.43
2022-12-11T02:44:27.606Z,25.87
2022-12-11T02:46:56.321Z,24.97
2022-12-11T02:49:25.167Z,27.00
2022-12-11T02:51:55.723Z,27.57
2022-12-11T02:54:28.293Z,28.40
2022-12-11T02:57:02.788Z,29.17
2022-12-11T02:59:36.833Z,28.20
2022-12-11T03:02:05.596Z,27.77
2022-12-11T03:04:36.316Z,28.37
2022-12-11T03:07:12.045Z,28.47
2022-12-11T03:09:40.519Z,25.60
2022-12-11T03:12:10.073Z,27.47
2022-12-11T03:14:42.055Z,27.50
2022-12-11T03:17:14.880Z,28.77
2022-12-11T03:19:48.586Z,27.67
2022-12-11T03:22:22.503Z,28.60
2022-12-11T03:24:54.036Z,30.37
2022-12-11T03:27:28.532Z,27.90
2022-12-11T03:30:01.353Z,27.87
2022-12-11T03:32:34.621Z,26.33
2022-12-11T03:35:08.453Z,27.23
2022-12-11T03:37:39.347Z,26.83
2022-12-11T03:40:11.840Z,25.67
2022-12-11T03:42:41.177Z,24.30
2022-12-11T03:45:11.944Z,25.07
2022-12-11T03:47:42.538Z,25.10
2022-12-11T03:50:13.895Z,26.93
2022-12-11T03:52:46.061Z,24.83
2022-12-11T03:55:15.959Z,25.03
2022-12-11T03:57:43.896Z,23.97
2022-12-11T04:00:17.136Z,22.47
2022-12-11T04:03:11.334Z,23.53
2022-12-11T04:05:41.097Z,23.90
2022-12-11T04:08:08.866Z,22.47
2022-12-11T04:10:36.707Z,21.20
2022-12-11T04:13:04.541Z,22.47
2022-12-11T04:15:33.091Z,22.13
2022-12-11T04:18:18.382Z,22.07
2022-12-11T04:21:03.659Z,21.23
2022-12-11T04:23:49.017Z,20.27
2022-12-11T04:26:20.402Z,18.33
2022-12-11T04:28:49.309Z,17.80
2022-12-11T04:31:20.502Z,18.67
2022-12-11T04:33:48.580Z,19.73
2022-12-11T04:36:17.852Z,18.23
2022-12-11T04:38:45.605Z,18.27
2022-12-11T04:41:15.004Z,20.77
2022-12-11T04:43:45.211Z,19.57
2022-12-11T04:46:15.120Z,19.47
2022-12-11T04:48:45.012Z,22.50
2022-12-11T04:51:12.957Z,23.53
2022-12-11T04:53:41.174Z,22.57
2022-12-11T04:56:10.650Z,23.67
2022-12-11T04:58:38.471Z,24.57
2022-12-11T05:01:08.949Z,23.10
2022-12-11T05:03:36.777Z,23.37
2022-12-11T05:06:06.300Z,23.73
2022-12-11T05:08:36.848Z,22.87
2022-12-11T05:11:06.969Z,23.00
2022-12-11T05:13:35.085Z,22.00
2022-12-11T05:16:04.941Z,22.90
2022-12-11T05:18:32.672Z,23.80
2022-12-11T05:21:02.629Z,21.90
2022-12-11T05:23:32.072Z,22.27
2022-12-11T05:26:00.960Z,22.30
2022-12-11T05:28:30.882Z,20.43
2022-12-11T05:30:59.204Z,21.73
2022-12-11T05:33:27.379Z,20.43
2022-12-11T05:35:55.104Z,20.13
2022-12-11T05:38:23.389Z,21.50
2022-12-11T05:40:59.099Z,21.20
2022-12-11T05:43:28.193Z,19.53
2022-12-11T05:45:56.338Z,19.63
2022-12-11T05:48:24.462Z,18.80
2022-12-11T05:50:59.111Z,19.83
2022-12-11T05:53:27.189Z,18.63
2022-12-11T05:55:55.158Z,19.37
2022-12-11T05:58:24.247Z,18.50
2022-12-11T06:00:52.016Z,18.00
2022-12-11T06:03:19.831Z,18.93
2022-12-11T06:05:47.658Z,17.57
2022-12-11T06:08:15.497Z,16.83
2022-12-11T06:10:46.518Z,17.53
2022-12-11T06:13:14.563Z,17.20
2022-12-11T06:15:44.057Z,17.73
2022-12-11T06:18:11.915Z,16.87
2022-12-11T06:20:40.203Z,17.57
2022-12-11T06:23:07.898Z,17.80
2022-12-11T06:25:35.703Z,16.73
2022-12-11T06:28:03.434Z,17.10
2022-12-11T06:30:38.256Z,17.60
2022-12-11T06:33:08.674Z,16.83
2022-12-11T06:35:42.095Z,17.20
2022-12-11T06:38:10.504Z,17.37
2022-12-11T06:40:38.752Z,17.43
2022-12-11T06:43:07.844Z,17.40
2022-12-11T06:45:35.778Z,17.40
2022-12-11T06:48:03.796Z,17.53
2022-12-11T06:50:33.491Z,17.00
2022-12-11T06:53:01.194Z,16.80
2022-12-11T06:55:28.900Z,16.23
2022-12-11T06:57:56.736Z,17.30
2022-12-11T07:00:24.891Z,16.13
2022-12-11T07:02:52.692Z,15.93
2022-12-11T07:05:23.677Z,14.80
2022-12-11T07:07:54.457Z,15.67
2022-12-11T07:10:22.732Z,17.97
2022-12-11T07:12:54.507Z,16.40
2022-12-11T07:15:22.342Z,17.47
2022-12-11T07:17:50.627Z,17.47
2022-12-11T07:20:18.517Z,18.10
2022-12-11T07:22:46.955Z,17.10
2022-12-11T07:25:16.414Z,16.47
2022-12-11T07:27:44.235Z,15.73
2022-12-11T07:30:13.096Z,16.17
2022-12-11T07:32:40.876Z,17.60
2022-12-11T07:35:09.958Z,17.63
2022-12-11T07:37:38.159Z,16.57
2022-12-11T07:40:07.777Z,16.73
2022-12-11T07:42:40.250Z,17.53
2022-12-11T07:45:16.073Z,17.23
2022-12-11T07:47:43.850Z,17.07
2022-12-11T07:50:14.267Z,17.20
2022-12-11T07:52:42.070Z,17.13
2022-12-11T07:55:11.227Z,17.13
2022-12-11T07:57:40.651Z,17.90
2022-12-11T08:00:10.593Z,16.77
2022-12-11T08:02:41.236Z,17.07
2022-12-11T08:05:10.146Z,17.67
2022-12-11T08:07:38.157Z,17.30
2022-12-11T08:10:06.704Z,17.47
2022-12-11T08:12:34.953Z,16.47
2022-12-11T08:15:04.680Z,16.27
2022-12-11T08:17:38.258Z,16.47
2022-12-11T08:20:09.626Z,16.93
2022-12-11T08:22:37.473Z,15.83
2022-12-11T08:25:05.824Z,16.27
2022-12-11T08:27:33.627Z,16.30
2022-12-11T08:30:01.395Z,16.00
2022-12-11T08:32:30.529Z,16.20
2022-12-11T08:34:58.226Z,16.57
2022-12-11T08:37:25.959Z,17.20
2022-12-11T08:39:54.174Z,17.77
2022-12-11T08:42:24.291Z,18.30
2022-12-11T08:44:55.069Z,16.63
2022-12-11T08:47:23.063Z,17.63
2022-12-11T08:49:52.119Z,17.43
2022-12-11T08:52:20.109Z,18.30
2022-12-11T08:54:48.281Z,17.00
2022-12-11T08:57:16.030Z,17.57
2022-12-11T08:59:43.905Z,18.43
2022-12-11T09:02:13.311Z,16.73
2022-12-11T09:04:41.669Z,18.33
2022-12-11T09:07:10.795Z,19.50
2022-12-11T09:09:38.617Z,20.20
2022-12-11T09:12:06.780Z,18.97
2022-12-11T09:14:35.393Z,18.67
2022-12-11T09:17:05.402Z,18.47
2022-12-11T09:19:33.199Z,16.90
2022-12-11T09:22:01.703Z,16.47
2022-12-11T09:24:30.801Z,16.93
2022-12-11T09:26:58.544Z,15.40
2022-12-11T09:29:26.303Z,15.93
2022-12-11T09:31:54.070Z,14.83
2022-12-11T09:34:27.545Z,16.20
2022-12-11T09:36:57.091Z,15.23
2022-12-11T09:39:24.929Z,15.40
2022-12-11T09:42:02.568Z,18.97
2022-12-11T09:44:39.135Z,16.97
2022-12-11T09:47:18.608Z,15.13
2022-12-11T09:49:48.308Z,15.47
2022-12-11T09:52:19.743Z,16.00
2022-12-11T09:54:51.425Z,17.47
2022-12-11T09:57:35.179Z,16.70
2022-12-11T10:00:15.076Z,15.47
2022-12-11T10:03:15.614Z,16.73
2022-12-11T10:05:51.140Z,16.40
2022-12-11T10:08:24.811Z,15.23
2022-12-11T10:11:05.962Z,15.57
2022-12-11T10:13:49.329Z,15.93
2022-12-11T10:16:32.631Z,15.83
2022-12-11T10:19:00.985Z,16.27
2022-12-11T10:21:39.926Z,16.83
2022-12-11T10:24:41.892Z,17.27
2022-12-11T10:27:19.116Z,17.27
2022-12-11T10:29:49.657Z,16.90
2022-12-11T10:32:24.602Z,18.07
2022-12-11T10:35:00.185Z,18.83
2022-12-11T10:37:27.885Z,18.17
2022-12-11T10:39:55.648Z,18.90
2022-12-11T10:42:24.175Z,17.10
2022-12-11T10:45:02.054Z,18.30
2022-12-11T10:47:30.171Z,17.43
2022-12-11T10:49:59.936Z,17.30
2022-12-11T10:52:31.607Z,17.20
2022-12-11T10:55:03.081Z,16.43
2022-12-11T10:57:34.965Z,16.97
2022-12-11T11:00:06.790Z,17.53
2022-12-11T11:02:37.339Z,17.03
2022-12-11T11:05:14.830Z,17.23
2022-12-11T11:07:43.134Z,16.27
2022-12-11T11:10:18.101Z,18.00
2022-12-11T11:12:48.223Z,18.13
2022-12-11T11:15:23.670Z,19.03
2022-12-11T11:17:55.673Z,21.00
2022-12-11T11:20:29.691Z,20.50
2022-12-11T11:23:00.009Z,21.73
2022-12-11T11:25:33.741Z,22.60
2022-12-11T11:28:03.516Z,22.07
2022-12-11T11:30:35.258Z,25.10
2022-12-11T11:33:06.577Z,23.40
2022-12-11T11:35:34.318Z,23.27
2022-12-11T11:38:07.804Z,23.17
2022-12-11T11:40:40.598Z,23.83
2022-12-11T11:43:18.821Z,22.70
2022-12-11T11:45:54.845Z,24.40
2022-12-11T11:48:41.386Z,22.17
2022-12-11T11:51:16.078Z,22.27
2022-12-11T11:53:49.310Z,23.43
2022-12-11T11:56:28.951Z,23.60
2022-12-11T11:59:04.142Z,25.23
2022-12-11T12:01:33.523Z,24.93
2022-12-11T12:04:03.634Z,24.50
2022-12-11T12:06:47.442Z,23.83
2022-12-11T12:09:30.363Z,24.70
2022-12-11T12:12:08.830Z,28.10
2022-12-11T12:14:52.352Z,25.80
2022-12-11T12:17:32.465Z,26.97
2022-12-11T12:20:12.694Z,28.30
2022-12-11T12:22:58.985Z,27.03
2022-12-11T12:25:33.037Z,27.07
2022-12-11T12:28:13.853Z,24.87
2022-12-11T12:30:50.581Z,25.97
2022-12-11T12:33:30.601Z,25.77
2022-12-11T12:36:07.547Z,24.93
2022-12-11T12:38:45.713Z,23.93
2022-12-11T12:41:19.704Z,24.30
2022-12-11T12:44:13.955Z,24.37
2022-12-11T12:46:57.200Z,25.97
2022-12-11T12:49:42.310Z,23.47
2022-12-11T12:52:17.514Z,23.10
2022-12-11T12:55:08.738Z,22.57
2022-12-11T12:57:39.605Z,22.73
2022-12-11T13:00:13.105Z,22.40
2022-12-11T13:02:50.218Z,23.13
2022-12-11T13:05:24.311Z,21.73
2022-12-11T13:07:55.531Z,19.57
2022-12-11T13:10:27.303Z,21.07
2022-12-11T13:12:55.378Z,20.60
2022-12-11T13:15:33.797Z,20.60
2022-12-11T13:18:03.234Z,20.67
2022-12-11T13:20:34.629Z,19.53
2022-12-11T13:23:26.930Z,20.50
2022-12-11T13:25:56.207Z,19.43
2022-12-11T13:28:29.365Z,20.97
2022-12-11T13:31:02.942Z,19.00
2022-12-11T13:33:31.542Z,18.30
2022-12-11T13:36:27.342Z,17.77
2022-12-11T13:38:58.054Z,17.53
2022-12-11T13:41:25.921Z,17.27
2022-12-11T13:43:54.589Z,15.67
2022-12-11T13:46:27.827Z,15.47
2022-12-11T13:49:00.723Z,15.23
2022-12-11T13:51:31.937Z,16.10
2022-12-11T13:54:17.033Z,15.63
2022-12-11T13:56:55.600Z,14.23
2022-12-11T13:59:29.622Z,15.43
2022-12-11T14:02:02.121Z,14.97
2022-12-11T14:04:31.339Z,15.17
2022-12-11T14:07:00.770Z,14.67
2022-12-11T14:09:29.406Z,14.00
2022-12-11T14:11:59.187Z,14.33
2022-12-11T14:14:36.061Z,15.43
2022-12-11T14:17:04.244Z,14.87
2022-12-11T14:19:32.096Z,13.77
2022-12-11T14:22:03.403Z,14.87
2022-12-11T14:24:32.158Z,14.90
2022-12-11T14:27:00.091Z,15.00
2022-12-11T14:29:30.922Z,15.10
2022-12-11T14:32:03.164Z,15.20
2022-12-11T14:34:35.852Z,15.57
2022-12-11T14:37:08.695Z,15.90
2022-12-11T14:39:41.905Z,14.97
2022-12-11T14:42:16.230Z,13.70
2022-12-11T14:44:50.892Z,14.20
2022-12-11T14:47:22.884Z,14.60
2022-12-11T14:49:56.516Z,15.63
2022-12-11T14:52:32.493Z,15.87
2022-12-11T14:55:05.875Z,14.63
2022-12-11T14:57:34.967Z,15.50
2022-12-11T15:00:03.098Z,15.97
2022-12-11T15:02:33.731Z,16.47
2022-12-11T15:05:06.388Z,15.87
2022-12-11T15:07:35.571Z,16.73
2022-12-11T15:10:04.033Z,16.10
2022-12-11T15:12:32.752Z,15.77
2022-12-11T15:15:04.379Z,16.67
2022-12-11T15:17:34.523Z,17.07
2022-12-11T15:20:07.328Z,17.13
2022-12-11T15:22:36.982Z,16.93
2022-12-11T15:25:05.926Z,16.13
2022-12-11T15:27:36.736Z,16.17
2022-12-11T15:30:26.632Z,17.20
2022-12-11T15:33:18.370Z,17.90
2022-12-11T15:36:12.495Z,18.67
2022-12-11T15:38:42.156Z,16.93
2022-12-11T15:41:15.720Z,15.90
2022-12-11T15:43:44.774Z,14.30
2022-12-11T15:46:12.653Z,14.33
2022-12-11T15:48:40.437Z,16.70
2022-12-11T15:51:08.246Z,14.50
2022-12-11T15:53:36.096Z,14.30
2022-12-11T15:56:05.685Z,15.27
2022-12-11T15:58:35.545Z,16.93
2022-12-11T16:01:03.577Z,16.23
2022-12-11T16:03:33.258Z,16.30
2022-12-11T16:06:01.001Z,18.77
2022-12-11T16:08:28.924Z,18.17
2022-12-11T16:10:57.419Z,17.17
2022-12-11T16:13:26.493Z,17.70
2022-12-11T16:15:54.756Z,16.50
2022-12-11T16:18:24.369Z,15.07
2022-12-11T16:20:52.976Z,14.90
2022-12-11T16:23:21.282Z,16.67
2022-12-11T16:25:49.358Z,15.67
2022-12-11T16:28:21.801Z,17.03
2022-12-11T16:30:51.021Z,16.13
2022-12-11T16:33:18.762Z,18.53
2022-12-11T16:35:47.281Z,16.93
2022-12-11T16:38:15.033Z,17.47
2022-12-11T16:40:42.806Z,18.37
2022-12-11T16:43:10.827Z,18.40
2022-12-11T16:45:38.588Z,18.57
2022-12-11T16:48:07.865Z,17.93
2022-12-11T16:50:36.467Z,18.07
2022-12-11T16:53:04.494Z,17.13
2022-12-11T16:55:32.311Z,16.57
2022-12-11T16:58:00.041Z,15.93
2022-12-11T17:00:27.760Z,17.37
2022-12-11T17:02:55.573Z,17.17
2022-12-11T17:05:26.050Z,17.40
2022-12-11T17:07:53.911Z,17.97
2022-12-11T17:10:21.705Z,17.37
2022-12-11T17:12:49.402Z,17.93
2022-12-11T17:15:17.258Z,17.73
2022-12-11T17:17:44.938Z,18.50
2022-12-11T17:20:12.920Z,18.90
2022-12-11T17:22:42.555Z,18.20
2022-12-11T17:25:10.924Z,18.10
2022-12-11T17:27:38.984Z,18.20
2022-12-11T17:30:07.785Z,18.77
2022-12-11T17:32:35.505Z,18.93
2022-12-11T17:35:03.240Z,19.50
2022-12-11T17:37:31.429Z,19.10
2022-12-11T17:40:00.614Z,19.27
2022-12-11T17:42:28.591Z,18.27
2022-12-11T17:44:56.696Z,19.13
2022-12-11T17:47:24.528Z,19.10
2022-12-11T17:49:52.297Z,19.80
2022-12-11T17:52:20.041Z,19.63
2022-12-11T17:54:47.852Z,19.90
2022-12-11T17:57:17.119Z,19.23
2022-12-11T17:59:44.914Z,18.40
2022-12-11T18:02:12.624Z,19.13
2022-12-11T18:04:40.694Z,17.80
2022-12-11T18:07:08.416Z,18.17
2022-12-11T18:09:36.127Z,18.73
2022-12-11T18:12:04.500Z,18.37
2022-12-11T18:14:33.597Z,18.40
2022-12-11T18:17:01.414Z,18.60
2022-12-11T18:19:29.207Z,19.30
2022-12-11T18:21:57.505Z,18.83
2022-12-11T18:24:25.838Z,18.30
2022-12-11T18:26:53.599Z,18.43
2022-12-11T18:29:21.443Z,18.60
2022-12-11T18:31:50.573Z,19.70
2022-12-11T18:34:18.341Z,17.80
2022-12-11T18:36:47.292Z,18.07
2022-12-11T18:39:16.372Z,18.33
2022-12-11T18:41:45.634Z,16.53
2022-12-11T18:44:22.428Z,16.77
2022-12-11T18:46:51.530Z,18.03
2022-12-11T18:49:19.384Z,17.43
2022-12-11T18:51:47.578Z,18.07
2022-12-11T18:54:15.421Z,17.47
2022-12-11T18:56:43.245Z,19.23
2022-12-11T18:59:13.424Z,18.13
2022-12-11T19:01:41.221Z,18.03
2022-12-11T19:04:11.136Z,18.40
2022-12-11T19:06:39.352Z,18.97
2022-12-11T19:09:08.898Z,20.87
2022-12-11T19:11:37.761Z,19.10
2022-12-11T19:14:06.232Z,18.93
2022-12-11T19:16:36.435Z,19.63
2022-12-11T19:19:06.499Z,19.10
2022-12-11T19:21:37.578Z,19.53
2022-12-11T19:24:06.426Z,18.87
2022-12-11T19:26:35.133Z,19.50
2022-12-11T19:29:02.885Z,20.23
2022-12-11T19:31:32.211Z,19.57
2022-12-11T19:34:01.234Z,16.83
2022-12-11T19:36:30.825Z,18.93
2022-12-11T19:39:02.291Z,18.77
2022-12-11T19:41:31.914Z,18.83
2022-12-11T19:44:00.804Z,19.43
2022-12-11T19:46:29.845Z,19.27
2022-12-11T19:48:59.529Z,19.03
2022-12-11T19:51:33.601Z,19.87
2022-12-11T19:54:03.453Z,20.77
2022-12-11T19:56:32.810Z,19.53
2022-12-11T19:59:02.940Z,19.27
2022-12-11T20:01:33.480Z,19.40
2022-12-11T20:04:03.160Z,18.67
2022-12-11T20:06:33.059Z,19.37
2022-12-11T20:09:02.749Z,19.10
2022-12-11T20:11:32.014Z,20.80
2022-12-11T20:14:00.331Z,20.23
2022-12-11T20:16:53.797Z,19.47
2022-12-11T20:19:16.926Z,18.43
2022-12-11T20:21:44.779Z,19.63
2022-12-11T20:24:13.887Z,20.57
2022-12-11T20:26:41.707Z,18.30
2022-12-11T20:29:09.563Z,18.70
2022-12-11T20:31:38.034Z,18.40
2022-12-11T20:34:07.295Z,19.50
2022-12-11T20:36:35.366Z,19.13
2022-12-11T20:39:03.216Z,19.47
2022-12-11T20:41:32.326Z,19.63
2022-12-11T20:44:00.080Z,19.90
2022-12-11T20:46:28.381Z,18.70
2022-12-11T20:48:59.535Z,19.73
2022-12-11T20:51:29.021Z,18.70
2022-12-11T20:53:59.260Z,19.40
2022-12-11T20:56:29.644Z,18.37
2022-12-11T20:59:00.617Z,18.13
2022-12-11T21:01:30.696Z,19.23
2022-12-11T21:03:59.001Z,19.93
2022-12-11T21:06:30.811Z,18.90
2022-12-11T21:08:59.257Z,18.33
2022-12-11T21:11:27.687Z,19.03
2022-12-11T21:13:55.842Z,19.13
2022-12-11T21:16:25.546Z,18.43
2022-12-11T21:18:55.603Z,18.67
2022-12-11T21:21:23.439Z,20.13
2022-12-11T21:23:51.168Z,22.60
2022-12-11T21:26:20.227Z,19.93
2022-12-11T21:28:47.970Z,19.07
2022-12-11T21:31:18.777Z,20.20
2022-12-11T21:33:48.187Z,18.93
2022-12-11T21:36:17.086Z,17.97
2022-12-11T21:38:46.058Z,19.23
2022-12-11T21:41:16.096Z,18.23
2022-12-11T21:44:14.639Z,19.50
2022-12-11T21:46:32.546Z,18.23
2022-12-11T21:49:01.861Z,20.67
2022-12-11T21:51:36.523Z,19.40
2022-12-11T21:54:09.210Z,19.23
2022-12-11T21:56:37.998Z,19.00
2022-12-11T21:59:06.058Z,18.47
2022-12-11T22:01:36.062Z,19.53
2022-12-11T22:04:06.303Z,18.40
2022-12-11T22:06:34.364Z,19.03
2022-12-11T22:09:02.394Z,18.17
2022-12-11T22:11:33.047Z,18.67
2022-12-11T22:14:00.834Z,19.23
2022-12-11T22:16:29.045Z,18.63
2022-12-11T22:18:56.802Z,19.17
2022-12-11T22:21:25.981Z,17.77
2022-12-11T22:23:55.416Z,18.50
2022-12-11T22:26:25.515Z,18.03
2022-12-11T22:28:54.109Z,18.43
2022-12-11T22:31:23.997Z,17.57
2022-12-11T22:33:53.586Z,17.60
2022-12-11T22:36:21.591Z,18.10
2022-12-11T22:38:50.934Z,18.53
2022-12-11T22:41:24.256Z,17.53
2022-12-11T22:43:52.609Z,17.80
2022-12-11T22:46:22.382Z,18.80
2022-12-11T22:48:50.433Z,17.67
2022-12-11T22:51:18.916Z,17.30
2022-12-11T22:53:46.762Z,17.77
2022-12-11T22:56:16.238Z,17.10
2022-12-11T22:58:44.477Z,17.23
2022-12-11T23:01:14.627Z,17.73
2022-12-11T23:03:42.428Z,16.57
2022-12-11T23:06:12.861Z,17.93
2022-12-11T23:08:41.546Z,17.40
2022-12-11T23:11:12.510Z,17.43
2022-12-11T23:13:41.900Z,17.17
2022-12-11T23:16:10.249Z,17.47
2022-12-11T23:18:38.429Z,17.67
2022-12-11T23:21:08.025Z,18.00
2022-12-11T23:23:35.907Z,18.10
2022-12-11T23:26:04.659Z,19.10
2022-12-11T23:28:32.392Z,17.43
2022-12-11T23:31:01.744Z,17.37
2022-12-11T23:33:29.624Z,18.40
2022-12-11T23:35:57.410Z,17.03
2022-12-11T23:38:25.288Z,16.90
2022-12-11T23:40:53.415Z,18.00
2022-12-11T23:43:21.210Z,17.50
2022-12-11T23:45:49.018Z,16.33
2022-12-11T23:48:18.422Z,17.10
2022-12-11T23:50:46.909Z,17.37
2022-12-11T23:53:28.630Z,17.47
2022-12-11T23:55:56.720Z,16.20
2022-12-11T23:58:24.492Z,16.87
